createdAt,value
2023-05-20T00:00:49.076Z,102607.53
2023-05-20T00:03:22.793Z,102603.97
2023-05-20T00:05:49.916Z,102601.22
2023-05-20T00:08:19.352Z,102601.97
2023-05-20T00:10:46.283Z,102604.38
2023-05-20T00:13:13.230Z,102618.09
2023-05-20T00:15:40.286Z,102611.00
2023-05-20T00:18:07.719Z,102600.41
2023-05-20T00:20:34.679Z,102592.44
2023-05-20T00:23:01.910Z,102588.88
2023-05-20T00:25:30.825Z,102596.59
2023-05-20T00:27:57.770Z,102597.41
2023-05-20T00:30:24.839Z,102588.69
2023-05-20T00:32:51.924Z,102575.38
2023-05-20T00:35:18.903Z,102578.97
2023-05-20T00:37:45.852Z,102584.13
2023-05-20T00:40:15.404Z,102574.34
2023-05-20T00:42:43.815Z,102579.69
2023-05-20T00:45:11.159Z,102571.66
2023-05-20T00:47:39.153Z,102579.56
2023-05-20T00:50:07.258Z,102583.00
2023-05-20T00:52:34.505Z,102584.56
2023-05-20T00:55:01.557Z,102580.00
2023-05-20T00:57:28.887Z,102578.91
2023-05-20T00:59:56.258Z,102577.88
2023-05-20T01:02:23.519Z,102583.59
2023-05-20T01:04:50.687Z,102585.75
2023-05-20T01:07:18.620Z,102587.19
2023-05-20T01:09:46.017Z,102583.56
2023-05-20T01:12:21.302Z,102581.75
2023-05-20T01:15:13.224Z,102586.06
2023-05-20T01:17:45.024Z,102585.03
2023-05-20T01:20:14.535Z,102581.31
2023-05-20T01:22:48.659Z,102570.78
2023-05-20T01:25:15.614Z,102570.63
2023-05-20T01:27:42.636Z,102575.84
2023-05-20T01:30:09.844Z,102570.53
2023-05-20T01:32:48.581Z,102574.81
2023-05-20T01:35:17.463Z,102564.25
2023-05-20T01:37:45.198Z,102565.19
2023-05-20T01:40:15.774Z,102566.00
2023-05-20T01:42:44.385Z,102566.00
2023-05-20T01:45:11.925Z,102568.59
2023-05-20T01:47:39.005Z,102573.78
2023-05-20T01:50:07.140Z,102573.81
2023-05-20T01:52:35.286Z,102580.75
2023-05-20T01:55:02.830Z,102572.78
2023-05-20T01:57:30.134Z,102579.00
2023-05-20T01:59:57.098Z,102585.03
2023-05-20T02:02:24.177Z,102584.16
2023-05-20T02:04:53.344Z,102585.78
2023-05-20T02:07:20.288Z,102589.25
2023-05-20T02:09:48.103Z,102573.38
2023-05-20T02:12:17.746Z,102580.44
2023-05-20T02:14:46.738Z,102575.16
2023-05-20T02:17:16.952Z,102576.66
2023-05-20T02:19:45.369Z,102584.59
2023-05-20T02:22:12.282Z,102584.56
2023-05-20T02:24:39.313Z,102581.88
2023-05-20T02:27:06.923Z,102584.47
2023-05-20T02:29:34.302Z,102587.09
2023-05-20T02:32:01.244Z,102588.81
2023-05-20T02:34:30.436Z,102587.94
2023-05-20T02:36:57.629Z,102584.44
2023-05-20T02:39:25.010Z,102582.66
2023-05-20T02:41:51.948Z,102580.03
2023-05-20T02:44:18.887Z,102579.13
2023-05-20T02:46:45.843Z,102584.28
2023-05-20T02:49:12.792Z,102571.19
2023-05-20T02:51:40.902Z,102571.19
2023-05-20T02:54:07.868Z,102572.88
2023-05-20T02:56:34.840Z,102578.06
2023-05-20T02:59:04.738Z,102568.50
2023-05-20T03:01:33.755Z,102584.13
2023-05-20T03:04:01.202Z,102591.94
2023-05-20T03:06:30.154Z,102589.28
2023-05-20T03:08:57.087Z,102598.00
2023-05-20T03:11:24.832Z,102590.19
2023-05-20T03:13:51.792Z,102595.44
2023-05-20T03:16:18.964Z,102589.34
2023-05-20T03:18:46.362Z,102579.78
2023-05-20T03:21:14.148Z,102581.53
2023-05-20T03:23:41.328Z,102580.69
2023-05-20T03:26:08.686Z,102580.69
2023-05-20T03:28:36.582Z,102572.03
2023-05-20T03:31:04.478Z,102582.47
2023-05-20T03:33:34.606Z,102577.34
2023-05-20T03:36:01.728Z,102578.31
2023-05-20T03:38:28.713Z,102574.03
2023-05-20T03:40:55.638Z,102587.19
2023-05-20T03:43:22.617Z,102591.63
2023-05-20T03:45:49.543Z,102582.13
2023-05-20T03:48:16.545Z,102579.69
2023-05-20T03:50:43.597Z,102586.72
2023-05-20T03:53:11.248Z,102595.53
2023-05-20T03:55:42.408Z,102598.22
2023-05-20T03:58:10.376Z,102598.31
2023-05-20T04:00:37.341Z,102602.88
2023-05-20T04:03:04.435Z,102609.47
2023-05-20T04:05:32.317Z,102610.19
2023-05-20T04:08:01.441Z,102605.81
2023-05-20T04:10:28.389Z,102610.13
2023-05-20T04:12:55.482Z,102601.47
2023-05-20T04:15:25.117Z,102596.25
2023-05-20T04:17:55.922Z,102601.88
2023-05-20T04:20:24.336Z,102603.75
2023-05-20T04:22:54.210Z,102597.75
2023-05-20T04:25:22.204Z,102604.06
2023-05-20T04:27:49.758Z,102606.31
2023-05-20T04:30:18.516Z,102592.78
2023-05-20T04:32:45.509Z,102590.50
2023-05-20T04:35:13.810Z,102597.66
2023-05-20T04:37:47.830Z,102588.88
2023-05-20T04:40:15.115Z,102601.19
2023-05-20T04:42:43.624Z,102597.72
2023-05-20T04:45:12.434Z,102589.75
2023-05-20T04:47:40.406Z,102600.34
2023-05-20T04:50:11.786Z,102602.94
2023-05-20T04:52:43.013Z,102605.63
2023-05-20T04:55:10.709Z,102609.13
2023-05-20T04:57:42.804Z,102605.50
2023-05-20T05:00:12.311Z,102598.47
2023-05-20T05:02:40.543Z,102600.28
2023-05-20T05:05:08.233Z,102598.59
2023-05-20T05:07:35.811Z,102606.63
2023-05-20T05:10:03.058Z,102608.47
2023-05-20T05:12:31.618Z,102600.78
2023-05-20T05:14:59.388Z,102606.13
2023-05-20T05:17:28.739Z,102605.31
2023-05-20T05:19:56.991Z,102609.72
2023-05-20T05:22:24.094Z,102601.91
2023-05-20T05:24:52.307Z,102606.34
2023-05-20T05:27:19.273Z,102605.47
2023-05-20T05:29:46.243Z,102609.00
2023-05-20T05:32:13.288Z,102601.16
2023-05-20T05:34:40.908Z,102595.91
2023-05-20T05:37:07.850Z,102604.84
2023-05-20T05:39:37.576Z,102600.63
2023-05-20T05:42:05.481Z,102605.03
2023-05-20T05:44:33.511Z,102603.19
2023-05-20T05:47:01.032Z,102608.47
2023-05-20T05:49:28.217Z,102602.44
2023-05-20T05:51:55.258Z,102601.66
2023-05-20T05:54:22.260Z,102606.94
2023-05-20T05:56:51.918Z,102599.91
2023-05-20T05:59:19.870Z,102604.31
2023-05-20T06:01:46.971Z,102597.34
2023-05-20T06:04:15.427Z,102590.34
2023-05-20T06:06:42.618Z,102595.03
2023-05-20T06:09:09.622Z,102591.59
2023-05-20T06:11:37.121Z,102595.13
2023-05-20T06:14:04.133Z,102589.94
2023-05-20T06:16:31.489Z,102593.47
2023-05-20T06:19:02.642Z,102590.13
2023-05-20T06:21:32.548Z,102579.75
2023-05-20T06:23:59.495Z,102592.22
2023-05-20T06:26:26.783Z,102580.13
2023-05-20T06:28:53.874Z,102580.31
2023-05-20T06:31:21.066Z,102581.22
2023-05-20T06:33:48.549Z,102584.81
2023-05-20T06:36:17.378Z,102582.25
2023-05-20T06:38:44.400Z,102575.28
2023-05-20T06:41:13.633Z,102576.25
2023-05-20T06:43:40.754Z,102587.81
2023-05-20T06:46:29.362Z,102586.13
2023-05-20T06:49:02.163Z,102582.78
2023-05-20T06:51:29.805Z,102576.66
2023-05-20T06:53:56.976Z,102579.97
2023-05-20T06:56:24.237Z,102579.91
2023-05-20T06:58:51.197Z,102578.16
2023-05-20T07:01:18.507Z,102579.09
2023-05-20T07:03:46.492Z,102577.53
2023-05-20T07:06:13.746Z,102586.34
2023-05-20T07:08:41.129Z,102578.47
2023-05-20T07:11:08.935Z,102580.25
2023-05-20T07:13:35.989Z,102583.72
2023-05-20T07:16:02.934Z,102585.41
2023-05-20T07:18:30.072Z,102573.13
2023-05-20T07:20:57.747Z,102571.28
2023-05-20T07:23:43.382Z,102564.19
2023-05-20T07:26:10.563Z,102568.56
2023-05-20T07:28:39.139Z,102571.19
2023-05-20T07:31:06.341Z,102567.72
2023-05-20T07:33:39.282Z,102559.84
2023-05-20T07:36:07.963Z,102556.31
2023-05-20T07:38:36.315Z,102575.59
2023-05-20T07:41:07.034Z,102563.34
2023-05-20T07:43:34.549Z,102553.69
2023-05-20T07:46:03.625Z,102556.44
2023-05-20T07:48:30.636Z,102568.81
2023-05-20T07:50:59.189Z,102563.63
2023-05-20T07:53:27.008Z,102551.34
2023-05-20T07:55:54.499Z,102565.50
2023-05-20T07:58:21.683Z,102552.41
2023-05-20T08:00:49.998Z,102555.06
2023-05-20T08:03:17.393Z,102550.66
2023-05-20T08:05:54.875Z,102545.41
2023-05-20T08:08:22.288Z,102542.81
2023-05-20T08:10:57.030Z,102536.72
2023-05-20T08:13:25.924Z,102535.03
2023-05-20T08:15:54.794Z,102526.34
2023-05-20T08:18:22.574Z,102524.69
2023-05-20T08:20:50.254Z,102509.06
2023-05-20T08:23:17.326Z,102512.56
2023-05-20T08:25:46.805Z,102524.84
2023-05-20T08:28:14.221Z,102534.56
2023-05-20T08:30:41.740Z,102534.63
2023-05-20T08:33:08.968Z,102533.88
2023-05-20T08:35:37.781Z,102535.78
2023-05-20T08:38:05.389Z,102535.88
2023-05-20T08:40:35.063Z,102523.56
2023-05-20T08:43:02.468Z,102527.13
2023-05-20T08:45:33.602Z,102513.97
2023-05-20T08:48:05.865Z,102524.59
2023-05-20T08:50:33.052Z,102521.09
2023-05-20T08:53:00.453Z,102527.34
2023-05-20T08:55:43.882Z,102530.00
2023-05-20T08:58:10.988Z,102531.75
2023-05-20T09:00:38.429Z,102533.50
2023-05-20T09:03:05.566Z,102532.63
2023-05-20T09:05:32.928Z,102544.09
2023-05-20T09:08:10.853Z,102530.94
2023-05-20T09:10:40.027Z,102526.59
2023-05-20T09:13:08.482Z,102526.66
2023-05-20T09:15:37.112Z,102519.72
2023-05-20T09:18:07.635Z,102520.63
2023-05-20T09:20:41.202Z,102520.69
2023-05-20T09:23:10.135Z,102518.09
2023-05-20T09:25:37.903Z,102519.88
2023-05-20T09:28:08.829Z,102513.75
2023-05-20T09:30:36.102Z,102508.50
2023-05-20T09:33:05.767Z,102515.56
2023-05-20T09:35:39.125Z,102518.22
2023-05-20T09:38:10.018Z,102518.22
2023-05-20T09:40:41.166Z,102516.47
2023-05-20T09:43:08.788Z,102516.50
2023-05-20T09:45:36.132Z,102513.91
2023-05-20T09:48:05.890Z,102505.13
2023-05-20T09:50:33.266Z,102510.41
2023-05-20T09:53:04.080Z,102510.44
2023-05-20T09:55:31.328Z,102502.50
2023-05-20T09:58:02.661Z,102506.03
2023-05-20T10:00:30.133Z,102499.03
2023-05-20T10:02:57.716Z,102492.88
2023-05-20T10:05:39.895Z,102502.56
2023-05-20T10:08:57.289Z,102500.81
2023-05-20T10:11:56.565Z,102494.69
2023-05-20T10:14:44.087Z,102485.91
2023-05-20T10:17:46.780Z,102487.66
2023-05-20T10:20:13.902Z,102494.69
2023-05-20T10:22:41.032Z,102482.41
2023-05-20T10:25:13.011Z,102479.75
2023-05-20T10:27:49.082Z,102469.19
2023-05-20T10:30:23.579Z,102471.81
2023-05-20T10:32:57.451Z,102479.75
2023-05-20T10:35:29.276Z,102473.59
2023-05-20T10:38:13.134Z,102473.56
2023-05-20T10:40:40.780Z,102475.34
2023-05-20T10:43:13.262Z,102467.41
2023-05-20T10:45:51.816Z,102474.44
2023-05-20T10:48:29.216Z,102470.03
2023-05-20T10:50:58.516Z,102465.63
2023-05-20T10:53:34.049Z,102459.44
2023-05-20T10:56:01.720Z,102463.84
2023-05-20T10:58:37.562Z,102464.75
2023-05-20T11:01:04.782Z,102460.34
2023-05-20T11:03:33.328Z,102455.97
2023-05-20T11:06:00.260Z,102447.16
2023-05-20T11:08:33.287Z,102443.63
2023-05-20T11:11:00.278Z,102435.72
2023-05-20T11:13:27.476Z,102443.59
2023-05-20T11:15:55.478Z,102445.34
2023-05-20T11:18:22.469Z,102449.72
2023-05-20T11:20:49.562Z,102432.13
2023-05-20T11:23:16.690Z,102428.56
2023-05-20T11:25:43.697Z,102441.72
2023-05-20T11:28:14.381Z,102442.56
2023-05-20T11:30:43.340Z,102431.03
2023-05-20T11:33:14.090Z,102423.09
2023-05-20T11:35:52.202Z,102423.06
2023-05-20T11:38:20.322Z,102424.91
2023-05-20T11:40:55.120Z,102428.47
2023-05-20T11:43:24.224Z,102429.41
2023-05-20T11:45:59.876Z,102425.09
2023-05-20T11:48:27.303Z,102426.91
2023-05-20T11:50:56.214Z,102421.63
2023-05-20T11:53:24.655Z,102433.09
2023-05-20T11:55:55.644Z,102420.78
2023-05-20T11:58:29.895Z,102424.28
2023-05-20T12:01:05.628Z,102419.91
2023-05-20T12:03:44.132Z,102426.94
2023-05-20T12:06:13.530Z,102423.44
2023-05-20T12:08:40.574Z,102425.16
2023-05-20T12:11:07.549Z,102420.78
2023-05-20T12:13:35.460Z,102410.22
2023-05-20T12:16:02.849Z,102413.75
2023-05-20T12:18:29.818Z,102412.84
2023-05-20T12:20:56.757Z,102398.78
2023-05-20T12:23:23.714Z,102408.44
2023-05-20T12:25:50.826Z,102404.03
2023-05-20T12:28:17.803Z,102402.25
2023-05-20T12:30:44.733Z,102397.00
2023-05-20T12:33:11.660Z,102405.75
2023-05-20T12:35:43.574Z,102389.91
2023-05-20T12:38:11.142Z,102402.19
2023-05-20T12:40:38.569Z,102386.28
2023-05-20T12:43:06.240Z,102387.97
2023-05-20T12:45:33.189Z,102386.16
2023-05-20T12:48:00.394Z,102385.19
2023-05-20T12:50:27.817Z,102383.47
2023-05-20T12:52:54.934Z,102390.53
2023-05-20T12:55:21.969Z,102389.69
2023-05-20T12:57:48.947Z,102389.72
2023-05-20T13:00:16.627Z,102388.00
2023-05-20T13:02:44.126Z,102381.00
2023-05-20T13:05:11.543Z,102373.94
2023-05-20T13:07:38.818Z,102374.75
2023-05-20T13:10:07.387Z,102367.72
2023-05-20T13:12:35.137Z,102363.31
2023-05-20T13:15:02.205Z,102360.69
2023-05-20T13:17:29.388Z,102369.50
2023-05-20T13:19:56.487Z,102356.22
2023-05-20T13:22:23.611Z,102358.84
2023-05-20T13:24:50.566Z,102349.13
2023-05-20T13:27:17.493Z,102348.25
2023-05-20T13:29:44.599Z,102352.59
2023-05-20T13:32:11.573Z,102339.38
2023-05-20T13:34:39.331Z,102340.19
2023-05-20T13:37:06.924Z,102348.09
2023-05-20T13:39:33.849Z,102340.00
2023-05-20T13:42:00.909Z,102345.22
2023-05-20T13:44:27.857Z,102328.41
2023-05-20T13:46:54.847Z,102326.63
2023-05-20T13:49:22.264Z,102331.97
2023-05-20T13:51:49.185Z,102333.72
2023-05-20T13:54:16.149Z,102323.97
2023-05-20T13:56:43.182Z,102307.22
2023-05-20T13:59:10.163Z,102315.09
2023-05-20T14:01:40.468Z,102312.44
2023-05-20T14:04:08.271Z,102308.03
2023-05-20T14:06:35.294Z,102304.53
2023-05-20T14:09:03.173Z,102305.31
2023-05-20T14:11:30.124Z,102293.88
2023-05-20T14:13:57.047Z,102296.59
2023-05-20T14:16:24.130Z,102292.22
2023-05-20T14:18:51.124Z,102296.63
2023-05-20T14:21:19.167Z,102294.03
2023-05-20T14:23:46.718Z,102286.09
2023-05-20T14:26:13.696Z,102281.63
2023-05-20T14:28:40.779Z,102281.50
2023-05-20T14:31:09.676Z,102270.91
2023-05-20T14:33:36.962Z,102277.06
2023-05-20T14:36:04.251Z,102267.34
2023-05-20T14:38:31.301Z,102262.13
2023-05-20T14:40:58.232Z,102257.81
2023-05-20T14:43:25.821Z,102249.09
2023-05-20T14:45:52.946Z,102257.03
2023-05-20T14:48:19.985Z,102257.91
2023-05-20T14:50:48.934Z,102265.06
2023-05-20T14:53:17.384Z,102263.28
2023-05-20T14:55:44.339Z,102250.97
2023-05-20T14:58:11.674Z,102242.16
2023-05-20T15:00:39.576Z,102231.59
2023-05-20T15:03:06.780Z,102241.38
2023-05-20T15:05:33.962Z,102239.72
2023-05-20T15:08:01.044Z,102245.88
2023-05-20T15:10:28.069Z,102247.56
2023-05-20T15:12:55.216Z,102242.25
2023-05-20T15:15:22.305Z,102239.56
2023-05-20T15:17:49.281Z,102233.38
2023-05-20T15:20:16.370Z,102232.41
2023-05-20T15:22:47.708Z,102223.56
2023-05-20T15:25:15.314Z,102223.53
2023-05-20T15:27:42.502Z,102225.16
2023-05-20T15:30:10.548Z,102226.91
2023-05-20T15:32:37.674Z,102214.53
2023-05-20T15:35:05.355Z,102222.53
2023-05-20T15:37:32.311Z,102211.06
2023-05-20T15:39:59.273Z,102216.31
2023-05-20T15:42:26.869Z,102197.84
2023-05-20T15:44:53.790Z,102217.84
2023-05-20T15:47:21.404Z,102203.69
2023-05-20T15:49:48.489Z,102201.06
2023-05-20T15:52:15.527Z,102195.91
2023-05-20T15:54:42.587Z,102187.06
2023-05-20T15:57:10.101Z,102189.75
2023-05-20T15:59:37.074Z,102180.97
2023-05-20T16:02:04.178Z,102174.03
2023-05-20T16:04:32.514Z,102177.59
2023-05-20T16:06:59.664Z,102167.22
2023-05-20T16:09:26.621Z,102174.28
2023-05-20T16:11:53.564Z,102178.72
2023-05-20T16:14:20.516Z,102171.81
2023-05-20T16:16:47.482Z,102164.81
2023-05-20T16:19:14.620Z,102162.25
2023-05-20T16:21:41.572Z,102163.19
2023-05-20T16:24:08.509Z,102161.50
2023-05-20T16:26:35.433Z,102157.13
2023-05-20T16:29:02.416Z,102155.44
2023-05-20T16:31:29.413Z,102152.72
2023-05-20T16:33:56.511Z,102159.69
2023-05-20T16:36:23.565Z,102151.63
2023-05-20T16:38:50.567Z,102162.88
2023-05-20T16:41:17.519Z,102165.34
2023-05-20T16:43:44.599Z,102155.47
2023-05-20T16:46:14.302Z,102151.84
2023-05-20T16:48:42.580Z,102157.00
2023-05-20T16:51:09.515Z,102157.03
2023-05-20T16:53:36.486Z,102150.66
2023-05-20T16:56:06.023Z,102165.44
2023-05-20T16:58:32.971Z,102150.47
2023-05-20T17:01:00.017Z,102155.75
2023-05-20T17:03:26.974Z,102153.16
2023-05-20T17:05:53.962Z,102155.88
2023-05-20T17:08:20.964Z,102155.94
2023-05-20T17:10:51.237Z,102145.34
2023-05-20T17:13:19.405Z,102151.50
2023-05-20T17:15:46.322Z,102147.94
2023-05-20T17:18:13.337Z,102147.84
2023-05-20T17:20:40.446Z,102148.75
2023-05-20T17:23:07.352Z,102146.16
2023-05-20T17:25:34.291Z,102138.31
2023-05-20T17:28:01.299Z,102126.06
2023-05-20T17:30:28.318Z,102135.88
2023-05-20T17:32:57.375Z,102140.53
2023-05-20T17:35:28.060Z,102136.34
2023-05-20T17:37:55.207Z,102130.38
2023-05-20T17:40:22.300Z,102127.88
2023-05-20T17:42:49.242Z,102121.00
2023-05-20T17:45:16.279Z,102121.03
2023-05-20T17:47:43.232Z,102135.16
2023-05-20T17:50:10.898Z,102125.44
2023-05-20T17:52:37.853Z,102128.22
2023-05-20T17:55:06.590Z,102123.00
2023-05-20T17:57:33.786Z,102120.47
2023-05-20T18:00:00.728Z,102124.09
2023-05-20T18:02:27.720Z,102110.09
2023-05-20T18:04:54.751Z,102112.84
2023-05-20T18:07:21.691Z,102097.13
2023-05-20T18:09:48.637Z,102113.03
2023-05-20T18:12:15.572Z,102102.53
2023-05-20T18:14:42.486Z,102102.59
2023-05-20T18:17:09.609Z,102107.00
2023-05-20T18:19:36.541Z,102103.50
2023-05-20T18:22:03.494Z,102093.81
2023-05-20T18:24:30.649Z,102085.94
2023-05-20T18:26:57.633Z,102097.38
2023-05-20T18:29:26.752Z,102093.00
2023-05-20T18:31:53.771Z,102095.59
2023-05-20T18:34:20.747Z,102087.66
2023-05-20T18:36:47.728Z,102092.94
2023-05-20T18:39:20.171Z,102086.84
2023-05-20T18:41:50.001Z,102090.41
2023-05-20T18:44:22.812Z,102090.41
2023-05-20T18:46:49.774Z,102091.25
2023-05-20T18:49:16.737Z,102091.31
2023-05-20T18:51:43.691Z,102095.75
2023-05-20T18:54:10.698Z,102094.03
2023-05-20T18:56:37.849Z,102098.41
2023-05-20T18:59:04.783Z,102101.03
2023-05-20T19:01:33.865Z,102097.56
2023-05-20T19:04:01.087Z,102093.16
2023-05-20T19:06:28.206Z,102101.09
2023-05-20T19:08:55.221Z,102099.34
2023-05-20T19:11:22.169Z,102094.09
2023-05-20T19:13:49.127Z,102096.72
2023-05-20T19:16:16.435Z,102099.38
2023-05-20T19:18:43.497Z,102099.38
2023-05-20T19:21:10.698Z,102100.28
2023-05-20T19:23:37.647Z,102101.19
2023-05-20T19:26:04.766Z,102100.28
2023-05-20T19:28:31.672Z,102108.19
2023-05-20T19:30:58.602Z,102109.03
2023-05-20T19:33:25.611Z,102099.34
2023-05-20T19:35:52.597Z,102109.84
2023-05-20T19:38:19.580Z,102108.94
2023-05-20T19:40:47.679Z,102105.41
2023-05-20T19:43:14.803Z,102113.28
2023-05-20T19:45:41.788Z,102110.63
2023-05-20T19:48:09.585Z,102105.34
2023-05-20T19:50:37.331Z,102105.31
2023-05-20T19:53:07.195Z,102108.75
2023-05-20T19:55:36.249Z,102107.84
2023-05-20T19:58:03.575Z,102111.28
2023-05-20T20:00:30.923Z,102113.03
2023-05-20T20:02:59.053Z,102111.28
2023-05-20T20:05:26.566Z,102103.34
2023-05-20T20:07:53.590Z,102107.69
2023-05-20T20:10:20.605Z,102102.38
2023-05-20T20:12:47.586Z,102104.97
2023-05-20T20:15:14.780Z,102100.59
2023-05-20T20:17:46.021Z,102099.72
2023-05-20T20:20:16.743Z,102092.72
2023-05-20T20:22:43.678Z,102092.69
2023-05-20T20:25:13.808Z,102097.88
2023-05-20T20:27:43.870Z,102103.94
2023-05-20T20:30:15.100Z,102103.06
2023-05-20T20:32:42.732Z,102103.91
2023-05-20T20:35:10.812Z,102102.16
2023-05-20T20:37:38.378Z,102103.88
2023-05-20T20:40:13.391Z,102101.28
2023-05-20T20:42:42.387Z,102103.09
2023-05-20T20:45:12.272Z,102097.91
2023-05-20T20:47:40.985Z,102097.97
2023-05-20T20:50:08.928Z,102097.09
2023-05-20T20:52:36.428Z,102098.00
2023-05-20T20:55:04.505Z,102107.66
2023-05-20T20:57:32.035Z,102106.81
2023-05-20T20:59:58.973Z,102107.72
2023-05-20T21:02:26.229Z,102102.44
2023-05-20T21:04:53.179Z,102102.44
2023-05-20T21:07:20.142Z,102105.00
2023-05-20T21:09:47.133Z,102095.25
2023-05-20T21:12:14.124Z,102102.16
2023-05-20T21:14:42.899Z,102092.44
2023-05-20T21:17:09.959Z,102093.28
2023-05-20T21:19:36.919Z,102090.66
2023-05-20T21:22:03.863Z,102090.66
2023-05-20T21:24:30.883Z,102090.66
2023-05-20T21:26:57.797Z,102086.31
2023-05-20T21:29:25.239Z,102093.31
2023-05-20T21:31:52.273Z,102087.16
2023-05-20T21:34:19.186Z,102088.06
2023-05-20T21:36:46.102Z,102085.41
2023-05-20T21:39:13.014Z,102087.09
2023-05-20T21:41:40.306Z,102081.75
2023-05-20T21:44:07.327Z,102091.28
2023-05-20T21:46:34.269Z,102091.19
2023-05-20T21:49:01.211Z,102092.97
2023-05-20T21:51:28.154Z,102091.22
2023-05-20T21:53:55.069Z,102091.25
2023-05-20T21:56:22.589Z,102089.47
2023-05-20T21:58:49.526Z,102095.47
2023-05-20T22:01:16.542Z,102093.66
2023-05-20T22:03:46.702Z,102090.97
2023-05-20T22:06:16.047Z,102091.72
2023-05-20T22:08:43.763Z,102083.84
2023-05-20T22:11:10.698Z,102088.16
2023-05-20T22:13:41.432Z,102073.28
2023-05-20T22:16:09.308Z,102077.59
2023-05-20T22:18:36.266Z,102073.19
2023-05-20T22:21:03.934Z,102081.06
2023-05-20T22:23:31.043Z,102079.34
2023-05-20T22:25:58.245Z,102073.25
2023-05-20T22:28:26.169Z,102074.13
2023-05-20T22:30:53.102Z,102081.88
2023-05-20T22:33:20.057Z,102076.50
2023-05-20T22:35:46.958Z,102072.88
2023-05-20T22:38:13.895Z,102071.06
2023-05-20T22:40:41.033Z,102073.66
2023-05-20T22:43:07.967Z,102070.22
2023-05-20T22:45:35.332Z,102074.59
2023-05-20T22:48:03.679Z,102069.38
2023-05-20T22:50:30.783Z,102069.38
2023-05-20T22:52:57.682Z,102059.78
2023-05-20T22:55:24.587Z,102060.69
2023-05-20T22:57:51.637Z,102061.53
2023-05-20T23:00:18.790Z,102057.16
2023-05-20T23:02:49.553Z,102054.47
2023-05-20T23:05:16.750Z,102049.09
2023-05-20T23:07:44.786Z,102048.16
2023-05-20T23:10:11.797Z,102051.63
2023-05-20T23:12:38.737Z,102053.41
2023-05-20T23:15:06.665Z,102044.69
2023-05-20T23:17:33.625Z,102044.75
2023-05-20T23:20:00.637Z,102048.34
2023-05-20T23:22:27.582Z,102039.66
2023-05-20T23:24:54.475Z,102041.50
2023-05-20T23:27:21.397Z,102040.69
2023-05-20T23:29:48.298Z,102041.53
2023-05-20T23:32:15.353Z,102032.66
2023-05-20T23:34:43.481Z,102033.41
2023-05-20T23:37:10.425Z,102023.78
2023-05-20T23:39:37.329Z,102032.50
2023-05-20T23:42:05.146Z,102027.25
2023-05-20T23:44:32.042Z,102022.13
2023-05-20T23:46:58.963Z,102022.22
2023-05-20T23:49:26.998Z,102024.00
2023-05-20T23:51:54.134Z,102018.84
2023-05-20T23:54:21.201Z,102021.47
2023-05-20T23:56:48.206Z,102013.63
2023-05-20T23:59:15.369Z,102018.03
